»·PEaware :: N8949G KBLI-KPAE

N8949G :: KBLI-KPAE

FLIGHT INFORMATION

Flight Status: Arrived
Operator: Privately registered:
United States
More flights under this callsign
Pilot: Guy T. (43757)
Aircraft: CESSNA 172 SKYHAWK
(C172)
More flights by this aircraft type
Origin: KBLI Bellingham Intl
United States
Destination: KPAE Paine Field/Snohomish Co.
United States
More flights between these airports :: More routes between these airports
Route: KIENO6 CVV
File this flight plan on PilotEdge
Remarks:
Altitude:
(Current/Filed)
4,000ft
Speed:
(Current/Filed)
150kts
Departed: 26-May-23 04:37 PM
Arrived: 26-May-23 05:14 PM
Distance/Time
Traveled:
54nm/0:36
Distance/Time
To Go:
Arrived

Flight Plot

Page will automatically refresh every two minutes.

Flight plan parsing failed; only flown route is shown


Map Options




Map Legend


Flown Route
Filed Route
Departure Airport
Arrival Airport
Navaid (VOR, NDB)
Fix

Horizontal Profiles

Position Reports

Time Latitude Longitude Heading Altitude Ground
Speed
26-May-23 16:23 48.787599 -122.534132 268 169ft 0kts
26-May-23 16:24 48.787599 -122.534132 268 169ft 0kts
26-May-23 16:25 48.787599 -122.534132 268 169ft 0kts
26-May-23 16:26 48.787599 -122.534132 268 169ft 0kts
26-May-23 16:27 48.787599 -122.534132 268 169ft 0kts
26-May-23 16:28 48.787599 -122.534132 268 169ft 0kts
26-May-23 16:29 48.786338 -122.535772 180 170ft 13kts
26-May-23 16:30 48.784300 -122.536070 199 171ft 0kts
26-May-23 16:31 48.784300 -122.536070 199 171ft 0kts
26-May-23 16:32 48.784300 -122.536070 199 171ft 0kts
26-May-23 16:33 48.784300 -122.536070 199 171ft 0kts
26-May-23 16:34 48.784300 -122.536070 199 171ft 0kts
26-May-23 16:35 48.783558 -122.536903 270 168ft 10kts
26-May-23 16:36 48.798029 -122.537736 0 657ft 80kts
26-May-23 16:37 48.794952 -122.555608 187 1649ft 87kts
26-May-23 16:38 48.771017 -122.562950 188 2619ft 89kts
26-May-23 16:39 48.746844 -122.572027 190 3532ft 90kts
26-May-23 16:40 48.721935 -122.578321 184 4382ft 91kts
26-May-23 16:41 48.696474 -122.579524 180 5177ft 92kts
26-May-23 16:42 48.670895 -122.573538 168 5920ft 94kts
26-May-23 16:43 48.640876 -122.562593 161 6023ft 118kts
26-May-23 16:44 48.608512 -122.548989 167 6044ft 121kts
26-May-23 16:45 48.575438 -122.535872 165 6029ft 122kts
26-May-23 16:46 48.541708 -122.525035 169 6006ft 123kts
26-May-23 16:47 48.508268 -122.511289 163 6001ft 123kts
26-May-23 16:48 48.475236 -122.498134 160 6016ft 122kts
26-May-23 16:49 48.442127 -122.484733 167 6023ft 122kts
26-May-23 16:50 48.408928 -122.472734 162 6023ft 122kts
26-May-23 16:51 48.375930 -122.461077 176 6034ft 122kts
26-May-23 16:52 48.343747 -122.444484 174 6003ft 123kts
26-May-23 16:53 48.309959 -122.433864 167 5926ft 125kts
26-May-23 16:54 48.275852 -122.425474 174 5672ft 124kts
26-May-23 16:55 48.241834 -122.416539 173 5355ft 124kts
26-May-23 16:56 48.208378 -122.404795 167 4946ft 123kts
26-May-23 16:57 48.174405 -122.398049 171 4401ft 123kts
26-May-23 16:58 48.141023 -122.388919 170 3843ft 121kts
26-May-23 16:59 48.107327 -122.380660 174 3299ft 120kts
26-May-23 17:00 48.074317 -122.370799 169 2981ft 111kts
26-May-23 17:01 48.042648 -122.362334 167 3062ft 118kts
26-May-23 17:02 48.009499 -122.352617 169 3128ft 124kts
26-May-23 17:03 47.975173 -122.344283 173 3113ft 124kts
26-May-23 17:04 47.941196 -122.335257 172 3106ft 124kts
26-May-23 17:05 47.906940 -122.325898 168 3091ft 124kts
26-May-23 17:06 47.872693 -122.315246 169 3082ft 124kts
26-May-23 17:07 47.838758 -122.305724 166 3079ft 124kts
26-May-23 17:08 47.806110 -122.293889 178 2804ft 121kts
26-May-23 17:09 47.824371 -122.283858 357 2613ft 76kts
26-May-23 17:10 47.848160 -122.284522 359 1513ft 86kts
26-May-23 17:11 47.872521 -122.284888 2 1070ft 86kts
26-May-23 17:12 47.895562 -122.285548 345 660ft 78kts
26-May-23 17:13 47.906522 -122.283935 47 582ft 24kts
26-May-23 17:14 47.907360 -122.283368 357 583ft 0kts
26-May-23 17:15 47.907475 -122.283376 357 583ft 0kts

Navigation Log

Ident Type
Flight plan parsing failed, navigation log unavailable